sensor_id;sensor_type;location;lat;lon;timestamp;P1;durP1;ratioP1;P2;durP2;ratioP2
9449;SDS011;4763;48.370;10.874;2023-05-20T00:00:34;3.53;;;3.00;;
9449;SDS011;4763;48.370;10.874;2023-05-20T00:03:01;3.70;;;3.07;;
9449;SDS011;4763;48.370;10.874;2023-05-20T00:05:29;4.07;;;3.17;;
9449;SDS011;4763;48.370;10.874;2023-05-20T00:07:56;3.43;;;2.87;;
9449;SDS011;4763;48.370;10.874;2023-05-20T00:10:28;5.10;;;3.30;;
9449;SDS011;4763;48.370;10.874;2023-05-20T00:12:55;3.63;;;3.20;;
9449;SDS011;4763;48.370;10.874;2023-05-20T00:15:22;3.87;;;3.30;;
9449;SDS011;4763;48.370;10.874;2023-05-20T00:17:49;5.30;;;3.67;;
9449;SDS011;4763;48.370;10.874;2023-05-20T00:20:15;4.43;;;3.20;;
9449;SDS011;4763;48.370;10.874;2023-05-20T00:22:44;4.67;;;3.50;;
9449;SDS011;4763;48.370;10.874;2023-05-20T00:25:10;5.27;;;3.30;;
9449;SDS011;4763;48.370;10.874;2023-05-20T00:27:38;8.23;;;3.53;;
9449;SDS011;4763;48.370;10.874;2023-05-20T00:30:05;4.43;;;3.47;;
9449;SDS011;4763;48.370;10.874;2023-05-20T00:32:33;4.97;;;3.50;;
9449;SDS011;4763;48.370;10.874;2023-05-20T00:35:00;6.17;;;2.87;;
9449;SDS011;4763;48.370;10.874;2023-05-20T00:37:27;6.07;;;2.93;;
9449;SDS011;4763;48.370;10.874;2023-05-20T00:39:56;4.97;;;3.50;;
9449;SDS011;4763;48.370;10.874;2023-05-20T00:42:23;5.00;;;3.17;;
9449;SDS011;4763;48.370;10.874;2023-05-20T00:44:50;3.67;;;2.83;;
9449;SDS011;4763;48.370;10.874;2023-05-20T00:47:18;4.37;;;2.97;;
9449;SDS011;4763;48.370;10.874;2023-05-20T00:49:47;4.27;;;3.23;;
9449;SDS011;4763;48.370;10.874;2023-05-20T00:52:16;3.40;;;3.10;;
9449;SDS011;4763;48.370;10.874;2023-05-20T00:54:44;4.13;;;2.90;;
9449;SDS011;4763;48.370;10.874;2023-05-20T00:57:14;5.40;;;3.17;;
9449;SDS011;4763;48.370;10.874;2023-05-20T00:59:42;3.93;;;3.10;;
9449;SDS011;4763;48.370;10.874;2023-05-20T01:02:10;6.83;;;3.10;;
9449;SDS011;4763;48.370;10.874;2023-05-20T01:04:37;4.17;;;3.27;;
9449;SDS011;4763;48.370;10.874;2023-05-20T01:07:05;5.87;;;3.13;;
9449;SDS011;4763;48.370;10.874;2023-05-20T01:09:32;4.13;;;2.73;;
9449;SDS011;4763;48.370;10.874;2023-05-20T01:12:00;3.30;;;2.70;;
9449;SDS011;4763;48.370;10.874;2023-05-20T01:14:32;5.33;;;3.70;;
9449;SDS011;4763;48.370;10.874;2023-05-20T01:17:02;4.13;;;3.70;;
9449;SDS011;4763;48.370;10.874;2023-05-20T01:19:35;3.23;;;2.93;;
9449;SDS011;4763;48.370;10.874;2023-05-20T01:22:06;4.50;;;3.50;;
9449;SDS011;4763;48.370;10.874;2023-05-20T01:24:39;3.73;;;3.13;;
9449;SDS011;4763;48.370;10.874;2023-05-20T01:27:07;4.03;;;3.40;;
9449;SDS011;4763;48.370;10.874;2023-05-20T01:29:34;4.50;;;3.40;;
9449;SDS011;4763;48.370;10.874;2023-05-20T01:32:03;7.33;;;4.03;;
9449;SDS011;4763;48.370;10.874;2023-05-20T01:34:32;6.37;;;3.80;;
9449;SDS011;4763;48.370;10.874;2023-05-20T01:37:00;3.93;;;3.53;;
9449;SDS011;4763;48.370;10.874;2023-05-20T01:39:29;5.50;;;3.60;;
9449;SDS011;4763;48.370;10.874;2023-05-20T01:41:59;6.50;;;4.30;;
9449;SDS011;4763;48.370;10.874;2023-05-20T01:44:27;5.50;;;3.67;;
9449;SDS011;4763;48.370;10.874;2023-05-20T01:46:55;5.80;;;3.97;;
9449;SDS011;4763;48.370;10.874;2023-05-20T01:49:21;5.17;;;3.57;;
9449;SDS011;4763;48.370;10.874;2023-05-20T01:51:48;4.60;;;3.70;;
9449;SDS011;4763;48.370;10.874;2023-05-20T01:54:15;4.10;;;3.70;;
9449;SDS011;4763;48.370;10.874;2023-05-20T01:56:41;13.27;;;4.00;;
9449;SDS011;4763;48.370;10.874;2023-05-20T01:59:09;3.80;;;3.40;;
9449;SDS011;4763;48.370;10.874;2023-05-20T02:01:36;3.73;;;3.40;;
9449;SDS011;4763;48.370;10.874;2023-05-20T02:04:03;5.07;;;4.00;;
9449;SDS011;4763;48.370;10.874;2023-05-20T02:06:30;5.27;;;4.50;;
9449;SDS011;4763;48.370;10.874;2023-05-20T02:08:57;3.53;;;3.23;;
9449;SDS011;4763;48.370;10.874;2023-05-20T02:11:23;5.33;;;4.10;;
9449;SDS011;4763;48.370;10.874;2023-05-20T02:13:50;6.73;;;4.17;;
9449;SDS011;4763;48.370;10.874;2023-05-20T02:16:18;4.83;;;3.73;;
9449;SDS011;4763;48.370;10.874;2023-05-20T02:18:46;4.17;;;3.60;;
9449;SDS011;4763;48.370;10.874;2023-05-20T02:21:12;4.50;;;3.80;;
9449;SDS011;4763;48.370;10.874;2023-05-20T02:23:39;5.70;;;3.60;;
9449;SDS011;4763;48.370;10.874;2023-05-20T02:26:06;4.83;;;3.30;;
9449;SDS011;4763;48.370;10.874;2023-05-20T02:28:32;4.10;;;3.20;;
9449;SDS011;4763;48.370;10.874;2023-05-20T02:30:59;7.97;;;3.80;;
9449;SDS011;4763;48.370;10.874;2023-05-20T02:33:27;4.70;;;3.57;;
9449;SDS011;4763;48.370;10.874;2023-05-20T02:35:54;4.80;;;3.57;;
9449;SDS011;4763;48.370;10.874;2023-05-20T02:38:21;5.53;;;3.77;;
9449;SDS011;4763;48.370;10.874;2023-05-20T02:40:48;5.00;;;3.80;;
9449;SDS011;4763;48.370;10.874;2023-05-20T02:43:15;5.50;;;3.37;;
9449;SDS011;4763;48.370;10.874;2023-05-20T02:45:41;4.30;;;3.90;;
9449;SDS011;4763;48.370;10.874;2023-05-20T02:48:08;4.07;;;3.57;;
9449;SDS011;4763;48.370;10.874;2023-05-20T02:50:38;4.73;;;3.93;;
9449;SDS011;4763;48.370;10.874;2023-05-20T02:53:05;7.73;;;4.20;;
9449;SDS011;4763;48.370;10.874;2023-05-20T02:55:32;6.30;;;4.53;;
9449;SDS011;4763;48.370;10.874;2023-05-20T02:57:59;5.77;;;4.10;;
9449;SDS011;4763;48.370;10.874;2023-05-20T03:00:26;4.30;;;3.90;;
9449;SDS011;4763;48.370;10.874;2023-05-20T03:02:55;6.03;;;4.20;;
9449;SDS011;4763;48.370;10.874;2023-05-20T03:05:22;3.87;;;3.43;;
9449;SDS011;4763;48.370;10.874;2023-05-20T03:07:52;6.10;;;3.90;;
9449;SDS011;4763;48.370;10.874;2023-05-20T03:10:19;4.57;;;3.97;;
9449;SDS011;4763;48.370;10.874;2023-05-20T03:12:46;5.57;;;4.40;;
9449;SDS011;4763;48.370;10.874;2023-05-20T03:15:13;5.00;;;4.10;;
9449;SDS011;4763;48.370;10.874;2023-05-20T03:17:39;5.03;;;4.20;;
9449;SDS011;4763;48.370;10.874;2023-05-20T03:20:06;6.53;;;4.27;;
9449;SDS011;4763;48.370;10.874;2023-05-20T03:22:34;4.90;;;4.13;;
9449;SDS011;4763;48.370;10.874;2023-05-20T03:25:03;5.93;;;4.30;;
9449;SDS011;4763;48.370;10.874;2023-05-20T03:27:30;5.10;;;3.97;;
9449;SDS011;4763;48.370;10.874;2023-05-20T03:29:58;5.50;;;4.03;;
9449;SDS011;4763;48.370;10.874;2023-05-20T03:32:25;7.07;;;4.67;;
9449;SDS011;4763;48.370;10.874;2023-05-20T03:34:52;5.30;;;4.20;;
9449;SDS011;4763;48.370;10.874;2023-05-20T03:37:19;5.67;;;4.20;;
9449;SDS011;4763;48.370;10.874;2023-05-20T03:39:45;5.37;;;3.97;;
9449;SDS011;4763;48.370;10.874;2023-05-20T03:42:13;4.43;;;4.00;;
9449;SDS011;4763;48.370;10.874;2023-05-20T03:44:40;6.53;;;4.10;;
9449;SDS011;4763;48.370;10.874;2023-05-20T03:47:09;6.07;;;4.57;;
9449;SDS011;4763;48.370;10.874;2023-05-20T03:49:36;5.93;;;4.40;;
9449;SDS011;4763;48.370;10.874;2023-05-20T03:52:04;5.63;;;4.20;;
9449;SDS011;4763;48.370;10.874;2023-05-20T03:54:31;6.10;;;3.90;;
9449;SDS011;4763;48.370;10.874;2023-05-20T03:56:59;5.37;;;4.60;;
9449;SDS011;4763;48.370;10.874;2023-05-20T03:59:28;5.93;;;4.23;;
9449;SDS011;4763;48.370;10.874;2023-05-20T04:01:55;4.90;;;4.40;;
9449;SDS011;4763;48.370;10.874;2023-05-20T04:04:22;4.33;;;3.63;;
9449;SDS011;4763;48.370;10.874;2023-05-20T04:06:48;4.93;;;4.00;;
9449;SDS011;4763;48.370;10.874;2023-05-20T04:09:15;6.07;;;4.70;;
9449;SDS011;4763;48.370;10.874;2023-05-20T04:11:42;5.43;;;4.30;;
9449;SDS011;4763;48.370;10.874;2023-05-20T04:14:08;4.83;;;3.90;;
9449;SDS011;4763;48.370;10.874;2023-05-20T04:16:36;5.23;;;4.73;;
9449;SDS011;4763;48.370;10.874;2023-05-20T04:19:03;4.93;;;3.93;;
9449;SDS011;4763;48.370;10.874;2023-05-20T04:21:30;7.37;;;4.97;;
9449;SDS011;4763;48.370;10.874;2023-05-20T04:23:57;6.93;;;4.67;;
9449;SDS011;4763;48.370;10.874;2023-05-20T04:26:23;6.47;;;4.50;;
9449;SDS011;4763;48.370;10.874;2023-05-20T04:28:50;5.40;;;4.33;;
9449;SDS011;4763;48.370;10.874;2023-05-20T04:31:17;6.00;;;4.87;;
9449;SDS011;4763;48.370;10.874;2023-05-20T04:33:46;4.70;;;4.20;;
9449;SDS011;4763;48.370;10.874;2023-05-20T04:36:14;8.83;;;5.17;;
9449;SDS011;4763;48.370;10.874;2023-05-20T04:38:44;5.77;;;4.27;;
9449;SDS011;4763;48.370;10.874;2023-05-20T04:41:12;6.73;;;4.70;;
9449;SDS011;4763;48.370;10.874;2023-05-20T04:43:39;6.80;;;5.40;;
9449;SDS011;4763;48.370;10.874;2023-05-20T04:46:06;8.47;;;4.90;;
9449;SDS011;4763;48.370;10.874;2023-05-20T04:48:33;5.63;;;4.57;;
9449;SDS011;4763;48.370;10.874;2023-05-20T04:51:04;6.27;;;5.17;;
9449;SDS011;4763;48.370;10.874;2023-05-20T04:53:31;6.40;;;4.57;;
9449;SDS011;4763;48.370;10.874;2023-05-20T04:56:00;6.73;;;4.83;;
9449;SDS011;4763;48.370;10.874;2023-05-20T04:58:27;7.10;;;5.00;;
9449;SDS011;4763;48.370;10.874;2023-05-20T05:00:55;9.07;;;5.00;;
9449;SDS011;4763;48.370;10.874;2023-05-20T05:03:22;5.77;;;4.90;;
9449;SDS011;4763;48.370;10.874;2023-05-20T05:05:55;5.57;;;4.53;;
9449;SDS011;4763;48.370;10.874;2023-05-20T05:08:27;5.97;;;4.73;;
9449;SDS011;4763;48.370;10.874;2023-05-20T05:10:53;5.37;;;4.73;;
9449;SDS011;4763;48.370;10.874;2023-05-20T05:13:20;5.53;;;4.43;;
9449;SDS011;4763;48.370;10.874;2023-05-20T05:15:47;5.93;;;4.37;;
9449;SDS011;4763;48.370;10.874;2023-05-20T05:18:14;6.03;;;4.37;;
9449;SDS011;4763;48.370;10.874;2023-05-20T05:20:42;6.93;;;4.83;;
9449;SDS011;4763;48.370;10.874;2023-05-20T05:23:09;7.20;;;4.60;;
9449;SDS011;4763;48.370;10.874;2023-05-20T05:25:37;7.57;;;6.10;;
9449;SDS011;4763;48.370;10.874;2023-05-20T05:28:03;8.43;;;5.80;;
9449;SDS011;4763;48.370;10.874;2023-05-20T05:30:30;7.07;;;5.43;;
9449;SDS011;4763;48.370;10.874;2023-05-20T05:32:57;9.37;;;6.10;;
9449;SDS011;4763;48.370;10.874;2023-05-20T05:35:23;6.87;;;5.47;;
9449;SDS011;4763;48.370;10.874;2023-05-20T05:37:50;9.57;;;6.43;;
9449;SDS011;4763;48.370;10.874;2023-05-20T05:40:17;8.47;;;5.77;;
9449;SDS011;4763;48.370;10.874;2023-05-20T05:42:49;8.30;;;5.97;;
9449;SDS011;4763;48.370;10.874;2023-05-20T05:45:15;8.67;;;6.33;;
9449;SDS011;4763;48.370;10.874;2023-05-20T05:47:42;8.27;;;5.83;;
9449;SDS011;4763;48.370;10.874;2023-05-20T05:50:09;8.90;;;6.70;;
9449;SDS011;4763;48.370;10.874;2023-05-20T05:52:36;10.47;;;7.07;;
9449;SDS011;4763;48.370;10.874;2023-05-20T05:55:03;9.23;;;6.40;;
9449;SDS011;4763;48.370;10.874;2023-05-20T05:57:30;11.53;;;7.30;;
9449;SDS011;4763;48.370;10.874;2023-05-20T05:59:58;8.43;;;6.20;;
9449;SDS011;4763;48.370;10.874;2023-05-20T06:02:25;9.43;;;7.07;;
9449;SDS011;4763;48.370;10.874;2023-05-20T06:04:52;10.07;;;7.03;;
9449;SDS011;4763;48.370;10.874;2023-05-20T06:07:19;10.33;;;7.37;;
9449;SDS011;4763;48.370;10.874;2023-05-20T06:09:46;8.70;;;6.60;;
9449;SDS011;4763;48.370;10.874;2023-05-20T06:12:13;9.27;;;6.50;;
9449;SDS011;4763;48.370;10.874;2023-05-20T06:14:40;7.50;;;6.07;;
9449;SDS011;4763;48.370;10.874;2023-05-20T06:17:10;13.43;;;7.43;;
9449;SDS011;4763;48.370;10.874;2023-05-20T06:19:37;9.60;;;6.43;;
9449;SDS011;4763;48.370;10.874;2023-05-20T06:22:04;8.20;;;6.67;;
9449;SDS011;4763;48.370;10.874;2023-05-20T06:24:31;7.50;;;6.33;;
9449;SDS011;4763;48.370;10.874;2023-05-20T06:26:58;8.43;;;6.53;;
9449;SDS011;4763;48.370;10.874;2023-05-20T06:29:25;13.07;;;6.93;;
9449;SDS011;4763;48.370;10.874;2023-05-20T06:31:52;8.50;;;6.33;;
9449;SDS011;4763;48.370;10.874;2023-05-20T06:34:20;10.63;;;7.00;;
9449;SDS011;4763;48.370;10.874;2023-05-20T06:36:47;8.63;;;6.33;;
9449;SDS011;4763;48.370;10.874;2023-05-20T06:39:13;8.77;;;7.17;;
9449;SDS011;4763;48.370;10.874;2023-05-20T06:41:40;8.57;;;6.70;;
9449;SDS011;4763;48.370;10.874;2023-05-20T06:44:08;10.53;;;6.93;;
9449;SDS011;4763;48.370;10.874;2023-05-20T06:46:35;8.80;;;6.93;;
9449;SDS011;4763;48.370;10.874;2023-05-20T06:49:01;9.17;;;6.87;;
9449;SDS011;4763;48.370;10.874;2023-05-20T06:51:30;9.00;;;6.70;;
9449;SDS011;4763;48.370;10.874;2023-05-20T06:53:56;8.97;;;6.33;;
9449;SDS011;4763;48.370;10.874;2023-05-20T06:56:23;8.03;;;5.83;;
9449;SDS011;4763;48.370;10.874;2023-05-20T06:58:50;11.10;;;6.03;;
9449;SDS011;4763;48.370;10.874;2023-05-20T07:01:16;13.53;;;6.80;;
9449;SDS011;4763;48.370;10.874;2023-05-20T07:03:43;8.40;;;6.10;;
9449;SDS011;4763;48.370;10.874;2023-05-20T07:06:10;10.17;;;6.63;;
9449;SDS011;4763;48.370;10.874;2023-05-20T07:08:38;9.83;;;6.90;;
9449;SDS011;4763;48.370;10.874;2023-05-20T07:11:05;7.57;;;6.20;;
9449;SDS011;4763;48.370;10.874;2023-05-20T07:13:32;8.63;;;6.63;;
9449;SDS011;4763;48.370;10.874;2023-05-20T07:16:01;9.60;;;6.73;;
9449;SDS011;4763;48.370;10.874;2023-05-20T07:18:28;7.67;;;5.70;;
9449;SDS011;4763;48.370;10.874;2023-05-20T07:20:55;9.27;;;6.43;;
9449;SDS011;4763;48.370;10.874;2023-05-20T07:23:22;6.70;;;5.67;;
9449;SDS011;4763;48.370;10.874;2023-05-20T07:25:51;7.10;;;6.10;;
9449;SDS011;4763;48.370;10.874;2023-05-20T07:28:19;7.70;;;5.80;;
9449;SDS011;4763;48.370;10.874;2023-05-20T07:30:46;7.40;;;6.37;;
9449;SDS011;4763;48.370;10.874;2023-05-20T07:33:14;7.43;;;6.30;;
9449;SDS011;4763;48.370;10.874;2023-05-20T07:35:42;7.90;;;6.30;;
9449;SDS011;4763;48.370;10.874;2023-05-20T07:38:09;7.37;;;6.07;;
9449;SDS011;4763;48.370;10.874;2023-05-20T07:40:37;11.13;;;6.33;;
9449;SDS011;4763;48.370;10.874;2023-05-20T07:43:05;7.73;;;6.40;;
9449;SDS011;4763;48.370;10.874;2023-05-20T07:45:33;7.50;;;5.90;;
9449;SDS011;4763;48.370;10.874;2023-05-20T07:48:00;7.23;;;5.80;;
9449;SDS011;4763;48.370;10.874;2023-05-20T07:50:27;7.90;;;6.40;;
9449;SDS011;4763;48.370;10.874;2023-05-20T07:52:54;7.57;;;6.30;;
9449;SDS011;4763;48.370;10.874;2023-05-20T07:55:21;9.23;;;5.93;;
9449;SDS011;4763;48.370;10.874;2023-05-20T07:57:48;6.53;;;5.53;;
9449;SDS011;4763;48.370;10.874;2023-05-20T08:00:16;8.70;;;5.90;;
9449;SDS011;4763;48.370;10.874;2023-05-20T08:02:43;7.33;;;6.40;;
9449;SDS011;4763;48.370;10.874;2023-05-20T08:05:10;7.90;;;6.13;;
9449;SDS011;4763;48.370;10.874;2023-05-20T08:07:36;5.60;;;4.87;;
9449;SDS011;4763;48.370;10.874;2023-05-20T08:10:03;9.13;;;5.87;;
9449;SDS011;4763;48.370;10.874;2023-05-20T08:12:31;9.63;;;6.40;;
9449;SDS011;4763;48.370;10.874;2023-05-20T08:14:58;5.73;;;5.00;;
9449;SDS011;4763;48.370;10.874;2023-05-20T08:17:26;5.70;;;4.90;;
9449;SDS011;4763;48.370;10.874;2023-05-20T08:19:55;10.70;;;5.30;;
9449;SDS011;4763;48.370;10.874;2023-05-20T08:22:21;6.43;;;4.70;;
9449;SDS011;4763;48.370;10.874;2023-05-20T08:24:48;6.00;;;5.23;;
9449;SDS011;4763;48.370;10.874;2023-05-20T08:27:15;5.00;;;3.97;;
9449;SDS011;4763;48.370;10.874;2023-05-20T08:29:43;5.20;;;4.50;;
9449;SDS011;4763;48.370;10.874;2023-05-20T08:32:10;6.10;;;4.80;;
9449;SDS011;4763;48.370;10.874;2023-05-20T08:34:38;4.47;;;4.00;;
9449;SDS011;4763;48.370;10.874;2023-05-20T08:37:04;5.33;;;4.13;;
9449;SDS011;4763;48.370;10.874;2023-05-20T08:39:31;4.72;;;4.20;;
9449;SDS011;4763;48.370;10.874;2023-05-20T08:41:58;6.85;;;4.28;;
9449;SDS011;4763;48.370;10.874;2023-05-20T08:44:25;6.47;;;4.38;;
9449;SDS011;4763;48.370;10.874;2023-05-20T08:46:56;8.18;;;4.32;;
9449;SDS011;4763;48.370;10.874;2023-05-20T08:49:23;6.38;;;4.18;;
9449;SDS011;4763;48.370;10.874;2023-05-20T08:51:51;4.22;;;3.72;;
9449;SDS011;4763;48.370;10.874;2023-05-20T08:54:18;7.78;;;4.20;;
9449;SDS011;4763;48.370;10.874;2023-05-20T08:56:47;3.97;;;3.55;;
9449;SDS011;4763;48.370;10.874;2023-05-20T08:59:14;5.18;;;3.90;;
9449;SDS011;4763;48.370;10.874;2023-05-20T09:01:43;4.25;;;3.22;;
9449;SDS011;4763;48.370;10.874;2023-05-20T09:04:10;5.50;;;3.83;;
9449;SDS011;4763;48.370;10.874;2023-05-20T09:06:43;7.82;;;4.38;;
9449;SDS011;4763;48.370;10.874;2023-05-20T09:09:12;4.43;;;3.67;;
9449;SDS011;4763;48.370;10.874;2023-05-20T09:11:40;4.65;;;3.92;;
9449;SDS011;4763;48.370;10.874;2023-05-20T09:14:07;4.53;;;3.80;;
9449;SDS011;4763;48.370;10.874;2023-05-20T09:16:33;4.80;;;3.97;;
9449;SDS011;4763;48.370;10.874;2023-05-20T09:19:00;4.28;;;3.65;;
9449;SDS011;4763;48.370;10.874;2023-05-20T09:21:30;7.50;;;4.13;;
9449;SDS011;4763;48.370;10.874;2023-05-20T09:24:00;5.47;;;4.68;;
9449;SDS011;4763;48.370;10.874;2023-05-20T09:26:28;5.30;;;4.43;;
9449;SDS011;4763;48.370;10.874;2023-05-20T09:28:55;5.13;;;4.13;;
9449;SDS011;4763;48.370;10.874;2023-05-20T09:31:24;5.63;;;3.55;;
9449;SDS011;4763;48.370;10.874;2023-05-20T09:33:52;5.32;;;3.58;;
9449;SDS011;4763;48.370;10.874;2023-05-20T09:36:19;3.75;;;3.35;;
9449;SDS011;4763;48.370;10.874;2023-05-20T09:38:50;5.10;;;4.03;;
9449;SDS011;4763;48.370;10.874;2023-05-20T09:41:18;4.72;;;3.47;;
9449;SDS011;4763;48.370;10.874;2023-05-20T09:43:51;5.22;;;3.80;;
9449;SDS011;4763;48.370;10.874;2023-05-20T09:46:22;5.72;;;3.95;;
9449;SDS011;4763;48.370;10.874;2023-05-20T09:48:49;3.42;;;3.08;;
9449;SDS011;4763;48.370;10.874;2023-05-20T09:51:16;3.85;;;2.92;;
9449;SDS011;4763;48.370;10.874;2023-05-20T09:53:44;3.60;;;3.28;;
9449;SDS011;4763;48.370;10.874;2023-05-20T09:56:11;3.53;;;3.03;;
9449;SDS011;4763;48.370;10.874;2023-05-20T09:58:38;4.85;;;2.97;;
9449;SDS011;4763;48.370;10.874;2023-05-20T10:01:08;3.53;;;3.20;;
9449;SDS011;4763;48.370;10.874;2023-05-20T10:03:35;4.22;;;3.40;;
9449;SDS011;4763;48.370;10.874;2023-05-20T10:06:08;4.28;;;3.22;;
9449;SDS011;4763;48.370;10.874;2023-05-20T10:08:52;4.32;;;3.10;;
9449;SDS011;4763;48.370;10.874;2023-05-20T10:11:38;3.47;;;2.47;;
9449;SDS011;4763;48.370;10.874;2023-05-20T10:14:16;4.57;;;3.10;;
9449;SDS011;4763;48.370;10.874;2023-05-20T10:17:06;5.25;;;2.95;;
9449;SDS011;4763;48.370;10.874;2023-05-20T10:19:39;4.40;;;3.10;;
9449;SDS011;4763;48.370;10.874;2023-05-20T10:22:07;3.42;;;2.80;;
9449;SDS011;4763;48.370;10.874;2023-05-20T10:24:35;4.22;;;3.10;;
9449;SDS011;4763;48.370;10.874;2023-05-20T10:27:07;3.30;;;2.92;;
9449;SDS011;4763;48.370;10.874;2023-05-20T10:29:41;4.38;;;2.80;;
9449;SDS011;4763;48.370;10.874;2023-05-20T10:32:10;3.63;;;2.60;;
9449;SDS011;4763;48.370;10.874;2023-05-20T10:34:43;3.33;;;2.92;;
9449;SDS011;4763;48.370;10.874;2023-05-20T10:37:19;3.83;;;3.15;;
9449;SDS011;4763;48.370;10.874;2023-05-20T10:39:50;3.80;;;2.88;;
9449;SDS011;4763;48.370;10.874;2023-05-20T10:42:26;3.95;;;3.10;;
9449;SDS011;4763;48.370;10.874;2023-05-20T10:44:54;4.55;;;2.83;;
9449;SDS011;4763;48.370;10.874;2023-05-20T10:47:22;2.30;;;2.10;;
9449;SDS011;4763;48.370;10.874;2023-05-20T10:49:49;3.80;;;3.00;;
9449;SDS011;4763;48.370;10.874;2023-05-20T10:52:16;3.67;;;2.80;;
9449;SDS011;4763;48.370;10.874;2023-05-20T10:54:43;2.90;;;2.60;;
9449;SDS011;4763;48.370;10.874;2023-05-20T10:57:11;4.10;;;3.13;;
9449;SDS011;4763;48.370;10.874;2023-05-20T10:59:38;2.60;;;2.40;;
9449;SDS011;4763;48.370;10.874;2023-05-20T11:02:04;3.53;;;2.65;;
9449;SDS011;4763;48.370;10.874;2023-05-20T11:04:34;3.00;;;2.67;;
9449;SDS011;4763;48.370;10.874;2023-05-20T11:07:01;4.05;;;2.85;;
9449;SDS011;4763;48.370;10.874;2023-05-20T11:09:28;2.97;;;2.67;;
9449;SDS011;4763;48.370;10.874;2023-05-20T11:11:56;8.82;;;3.30;;
9449;SDS011;4763;48.370;10.874;2023-05-20T11:14:23;3.28;;;2.65;;
9449;SDS011;4763;48.370;10.874;2023-05-20T11:16:50;3.58;;;2.80;;
9449;SDS011;4763;48.370;10.874;2023-05-20T11:19:18;3.30;;;2.42;;
9449;SDS011;4763;48.370;10.874;2023-05-20T11:21:46;5.30;;;3.42;;
9449;SDS011;4763;48.370;10.874;2023-05-20T11:24:22;2.80;;;2.55;;
9449;SDS011;4763;48.370;10.874;2023-05-20T11:26:50;3.80;;;2.55;;
9449;SDS011;4763;48.370;10.874;2023-05-20T11:29:17;5.45;;;2.50;;
9449;SDS011;4763;48.370;10.874;2023-05-20T11:31:46;3.08;;;2.40;;
9449;SDS011;4763;48.370;10.874;2023-05-20T11:34:14;3.03;;;2.55;;
9449;SDS011;4763;48.370;10.874;2023-05-20T11:36:40;5.35;;;2.30;;
9449;SDS011;4763;48.370;10.874;2023-05-20T11:39:09;3.75;;;3.20;;
9449;SDS011;4763;48.370;10.874;2023-05-20T11:41:37;4.22;;;2.30;;
9449;SDS011;4763;48.370;10.874;2023-05-20T11:44:06;4.45;;;2.78;;
9449;SDS011;4763;48.370;10.874;2023-05-20T11:46:39;5.20;;;2.40;;
9449;SDS011;4763;48.370;10.874;2023-05-20T11:49:06;3.40;;;2.70;;
9449;SDS011;4763;48.370;10.874;2023-05-20T11:51:33;4.55;;;3.35;;
9449;SDS011;4763;48.370;10.874;2023-05-20T11:54:00;3.58;;;3.03;;
9449;SDS011;4763;48.370;10.874;2023-05-20T11:56:29;2.67;;;2.38;;
9449;SDS011;4763;48.370;10.874;2023-05-20T11:58:56;4.07;;;3.10;;
9449;SDS011;4763;48.370;10.874;2023-05-20T12:01:24;8.18;;;3.63;;
9449;SDS011;4763;48.370;10.874;2023-05-20T12:03:51;4.13;;;2.35;;
9449;SDS011;4763;48.370;10.874;2023-05-20T12:06:18;2.85;;;2.55;;
9449;SDS011;4763;48.370;10.874;2023-05-20T12:08:45;3.13;;;2.33;;
9449;SDS011;4763;48.370;10.874;2023-05-20T12:11:12;2.75;;;2.25;;
9449;SDS011;4763;48.370;10.874;2023-05-20T12:13:40;3.20;;;2.80;;
9449;SDS011;4763;48.370;10.874;2023-05-20T12:16:07;2.40;;;2.20;;
9449;SDS011;4763;48.370;10.874;2023-05-20T12:18:34;2.30;;;2.10;;
9449;SDS011;4763;48.370;10.874;2023-05-20T12:21:00;2.78;;;2.42;;
9449;SDS011;4763;48.370;10.874;2023-05-20T12:23:27;2.35;;;1.92;;
9449;SDS011;4763;48.370;10.874;2023-05-20T12:25:57;3.55;;;2.45;;
9449;SDS011;4763;48.370;10.874;2023-05-20T12:28:24;2.55;;;2.17;;
9449;SDS011;4763;48.370;10.874;2023-05-20T12:30:53;3.67;;;2.40;;
9449;SDS011;4763;48.370;10.874;2023-05-20T12:33:19;2.28;;;2.03;;
9449;SDS011;4763;48.370;10.874;2023-05-20T12:35:46;3.88;;;2.35;;
9449;SDS011;4763;48.370;10.874;2023-05-20T12:38:13;3.88;;;2.40;;
9449;SDS011;4763;48.370;10.874;2023-05-20T12:40:40;3.95;;;2.08;;
9449;SDS011;4763;48.370;10.874;2023-05-20T12:43:06;3.28;;;2.15;;
9449;SDS011;4763;48.370;10.874;2023-05-20T12:45:33;3.33;;;2.13;;
9449;SDS011;4763;48.370;10.874;2023-05-20T12:48:01;2.33;;;2.13;;
9449;SDS011;4763;48.370;10.874;2023-05-20T12:50:29;2.53;;;1.95;;
9449;SDS011;4763;48.370;10.874;2023-05-20T12:52:56;2.40;;;1.95;;
9449;SDS011;4763;48.370;10.874;2023-05-20T12:55:23;3.00;;;2.25;;
9449;SDS011;4763;48.370;10.874;2023-05-20T12:57:50;2.15;;;1.90;;
9449;SDS011;4763;48.370;10.874;2023-05-20T13:00:20;3.05;;;1.88;;
9449;SDS011;4763;48.370;10.874;2023-05-20T13:02:47;2.33;;;2.13;;
9449;SDS011;4763;48.370;10.874;2023-05-20T13:05:15;4.47;;;3.20;;
9449;SDS011;4763;48.370;10.874;2023-05-20T13:07:42;4.03;;;2.20;;
9449;SDS011;4763;48.370;10.874;2023-05-20T13:10:09;3.67;;;2.35;;
9449;SDS011;4763;48.370;10.874;2023-05-20T13:12:36;2.97;;;2.65;;
9449;SDS011;4763;48.370;10.874;2023-05-20T13:15:04;3.20;;;2.15;;
9449;SDS011;4763;48.370;10.874;2023-05-20T13:17:32;4.35;;;2.42;;
9449;SDS011;4763;48.370;10.874;2023-05-20T13:19:59;2.67;;;2.15;;
9449;SDS011;4763;48.370;10.874;2023-05-20T13:22:27;2.40;;;2.08;;
9449;SDS011;4763;48.370;10.874;2023-05-20T13:24:54;2.25;;;1.95;;
9449;SDS011;4763;48.370;10.874;2023-05-20T13:27:20;2.50;;;2.05;;
9449;SDS011;4763;48.370;10.874;2023-05-20T13:29:47;2.70;;;2.33;;
9449;SDS011;4763;48.370;10.874;2023-05-20T13:32:14;3.53;;;2.10;;
9449;SDS011;4763;48.370;10.874;2023-05-20T13:34:41;3.88;;;2.65;;
9449;SDS011;4763;48.370;10.874;2023-05-20T13:37:08;2.63;;;2.35;;
9449;SDS011;4763;48.370;10.874;2023-05-20T13:39:36;4.80;;;2.55;;
9449;SDS011;4763;48.370;10.874;2023-05-20T13:42:02;2.88;;;2.40;;
9449;SDS011;4763;48.370;10.874;2023-05-20T13:44:29;4.55;;;2.55;;
9449;SDS011;4763;48.370;10.874;2023-05-20T13:46:56;3.30;;;2.30;;
9449;SDS011;4763;48.370;10.874;2023-05-20T13:49:23;3.20;;;2.50;;
9449;SDS011;4763;48.370;10.874;2023-05-20T13:51:50;3.55;;;2.30;;
9449;SDS011;4763;48.370;10.874;2023-05-20T13:54:17;4.90;;;2.25;;
9449;SDS011;4763;48.370;10.874;2023-05-20T13:56:45;3.97;;;2.53;;
9449;SDS011;4763;48.370;10.874;2023-05-20T13:59:12;2.47;;;2.05;;
9449;SDS011;4763;48.370;10.874;2023-05-20T14:01:39;3.38;;;2.60;;
9449;SDS011;4763;48.370;10.874;2023-05-20T14:04:08;4.55;;;2.95;;
9449;SDS011;4763;48.370;10.874;2023-05-20T14:06:36;4.65;;;2.75;;
9449;SDS011;4763;48.370;10.874;2023-05-20T14:09:02;3.42;;;2.63;;
9449;SDS011;4763;48.370;10.874;2023-05-20T14:11:31;6.57;;;2.97;;
9449;SDS011;4763;48.370;10.874;2023-05-20T14:13:59;3.65;;;3.10;;
9449;SDS011;4763;48.370;10.874;2023-05-20T14:16:25;3.65;;;3.17;;
9449;SDS011;4763;48.370;10.874;2023-05-20T14:18:52;7.07;;;2.60;;
9449;SDS011;4763;48.370;10.874;2023-05-20T14:21:19;4.07;;;3.55;;
9449;SDS011;4763;48.370;10.874;2023-05-20T14:23:46;3.85;;;2.72;;
9449;SDS011;4763;48.370;10.874;2023-05-20T14:26:13;3.40;;;3.10;;
9449;SDS011;4763;48.370;10.874;2023-05-20T14:28:40;3.42;;;2.47;;
9449;SDS011;4763;48.370;10.874;2023-05-20T14:31:08;4.53;;;3.15;;
9449;SDS011;4763;48.370;10.874;2023-05-20T14:33:35;7.40;;;3.00;;
9449;SDS011;4763;48.370;10.874;2023-05-20T14:36:02;4.75;;;3.22;;
9449;SDS011;4763;48.370;10.874;2023-05-20T14:38:29;3.13;;;2.75;;
9449;SDS011;4763;48.370;10.874;2023-05-20T14:40:56;3.75;;;3.03;;
9449;SDS011;4763;48.370;10.874;2023-05-20T14:43:23;5.05;;;3.00;;
9449;SDS011;4763;48.370;10.874;2023-05-20T14:45:50;5.20;;;3.42;;
9449;SDS011;4763;48.370;10.874;2023-05-20T14:48:18;7.85;;;3.42;;
9449;SDS011;4763;48.370;10.874;2023-05-20T14:50:45;5.13;;;3.60;;
9449;SDS011;4763;48.370;10.874;2023-05-20T14:53:12;5.75;;;3.67;;
9449;SDS011;4763;48.370;10.874;2023-05-20T14:55:38;4.28;;;3.35;;
9449;SDS011;4763;48.370;10.874;2023-05-20T14:58:05;5.10;;;3.45;;
9449;SDS011;4763;48.370;10.874;2023-05-20T15:00:32;4.90;;;3.03;;
9449;SDS011;4763;48.370;10.874;2023-05-20T15:02:59;4.35;;;3.55;;